createdAt,value
2019-04-23T00:02:26.572Z,15.99
2019-04-23T00:04:47.924Z,16.31
2019-04-23T00:07:30.022Z,16.32
2019-04-23T00:09:47.104Z,15.62
2019-04-23T00:12:23.049Z,16.08
2019-04-23T00:14:49.510Z,15.74
2019-04-23T00:17:12.052Z,15.89
2019-04-23T00:19:34.223Z,15.83
2019-04-23T00:22:16.688Z,15.62
2019-04-23T00:27:40.385Z,15.62
2019-04-23T00:29:53.820Z,15.88
2019-04-23T00:32:18.409Z,15.91
2019-04-23T00:37:11.302Z,15.92
2019-04-23T00:39:34.363Z,15.80
2019-04-23T00:42:05.409Z,16.00
2019-04-23T00:44:32.482Z,15.42
2019-04-23T00:46:55.837Z,15.81
2019-04-23T00:49:21.112Z,15.84
2019-04-23T00:51:42.530Z,15.98
2019-04-23T00:54:14.401Z,15.59
2019-04-23T00:56:56.451Z,15.83
2019-04-23T00:59:00.776Z,15.84
2019-04-23T01:01:39.303Z,15.60
2019-04-23T01:03:55.167Z,15.85
2019-04-23T01:08:44.154Z,15.82
2019-04-23T01:11:19.928Z,15.71
2019-04-23T01:13:43.202Z,15.67
2019-04-23T01:18:46.869Z,15.54
2019-04-23T01:20:54.422Z,15.50
2019-04-23T01:23:37.714Z,15.39
2019-04-23T01:26:08.129Z,15.29
2019-04-23T01:28:47.962Z,15.24
2019-04-23T01:31:18.165Z,15.20
2019-04-23T01:36:20.657Z,15.23
2019-04-23T01:40:53.687Z,15.43
2019-04-23T01:43:26.736Z,15.46
2019-04-23T01:45:41.623Z,15.10
2019-04-23T01:48:12.787Z,15.49
2019-04-23T01:50:50.194Z,15.20
2019-04-23T01:53:16.295Z,15.40
2019-04-23T01:55:42.467Z,15.26
2019-04-23T01:58:23.717Z,15.15
2019-04-23T02:00:39.188Z,15.54
2019-04-23T02:03:16.158Z,15.18
2019-04-23T02:05:32.926Z,15.36
2019-04-23T02:07:56.927Z,15.13
2019-04-23T02:10:29.539Z,15.29
2019-04-23T02:12:48.927Z,14.89
2019-04-23T02:15:16.925Z,14.50
2019-04-23T02:17:39.772Z,14.52
2019-04-23T02:20:08.903Z,14.83
2019-04-23T02:22:50.172Z,15.07
2019-04-23T02:25:35.300Z,15.11
2019-04-23T02:27:52.139Z,14.74
2019-04-23T02:33:08.374Z,14.49
2019-04-23T02:35:17.266Z,14.97
2019-04-23T02:37:54.669Z,15.15
2019-04-23T02:40:13.952Z,15.17
2019-04-23T02:44:53.776Z,14.93
2019-04-23T02:47:23.131Z,14.60
2019-04-23T02:49:55.404Z,14.94
2019-04-23T02:52:28.767Z,15.05
2019-04-23T02:57:20.331Z,14.90
2019-04-23T03:02:26.274Z,14.75
2019-04-23T03:04:44.134Z,14.76
2019-04-23T03:09:36.427Z,14.56
2019-04-23T03:12:22.506Z,14.70
2019-04-23T03:14:31.130Z,14.40
2019-04-23T03:16:58.401Z,14.59
2019-04-23T03:20:01.646Z,14.71
2019-04-23T03:21:56.126Z,14.18
2019-04-23T03:24:38.871Z,14.46
2019-04-23T03:26:55.714Z,14.77
2019-04-23T03:37:11.212Z,14.47
2019-04-23T03:38:56.004Z,14.74
2019-04-23T03:44:27.085Z,14.76
2019-04-23T03:51:31.827Z,14.53
2019-04-23T03:53:58.520Z,14.38
2019-04-23T04:01:07.767Z,14.12
2019-04-23T04:04:04.084Z,14.36
2019-04-23T04:06:05.801Z,14.60
2019-04-23T04:10:57.414Z,14.49
2019-04-23T04:13:22.762Z,14.19
2019-04-23T04:18:25.826Z,14.08
2019-04-23T04:20:44.288Z,14.14
2019-04-23T04:28:03.524Z,14.23
2019-04-23T04:30:20.853Z,14.38
2019-04-23T04:33:00.434Z,14.36
2019-04-23T04:42:33.548Z,14.16
2019-04-23T04:45:00.648Z,13.95
2019-04-23T04:47:32.439Z,14.31
2019-04-23T04:49:58.363Z,14.00
2019-04-23T04:54:24.104Z,14.07
2019-04-23T04:57:17.086Z,14.07
2019-04-23T04:59:48.040Z,14.01
2019-04-23T05:02:08.865Z,14.13
2019-04-23T05:04:26.660Z,14.04
2019-04-23T05:07:04.475Z,14.19
2019-04-23T05:09:43.860Z,14.26
2019-04-23T05:14:03.890Z,14.16
2019-04-23T05:16:35.516Z,14.15
2019-04-23T05:19:19.947Z,14.39
2019-04-23T05:21:37.646Z,14.43
2019-04-23T05:23:54.373Z,14.61
2019-04-23T05:26:26.521Z,14.58
2019-04-23T05:28:55.558Z,14.37
2019-04-23T05:31:15.798Z,14.60
2019-04-23T05:33:45.167Z,14.72
2019-04-23T05:38:54.233Z,14.17
2019-04-23T05:41:03.805Z,14.49
2019-04-23T05:43:20.941Z,14.60
2019-04-23T05:45:46.674Z,14.91
2019-04-23T05:48:17.498Z,14.73
2019-04-23T05:50:50.637Z,14.58
2019-04-23T05:55:39.919Z,14.57
2019-04-23T05:58:00.591Z,14.21
2019-04-23T06:00:34.749Z,14.28
2019-04-23T06:02:59.327Z,14.50
2019-04-23T06:05:20.005Z,14.45
2019-04-23T06:10:11.018Z,14.45
2019-04-23T06:12:42.278Z,14.52
2019-04-23T06:15:06.826Z,14.98
2019-04-23T06:17:27.453Z,15.10
2019-04-23T06:19:58.592Z,14.61
2019-04-23T06:24:47.150Z,14.85
2019-04-23T06:27:24.558Z,15.09
2019-04-23T06:29:39.530Z,14.87
2019-04-23T06:32:07.933Z,14.82
2019-04-23T06:34:47.353Z,14.92
2019-04-23T06:36:57.483Z,15.13
2019-04-23T06:39:33.253Z,15.07
2019-04-23T06:41:55.051Z,15.22
2019-04-23T06:46:56.888Z,15.22
2019-04-23T06:49:17.064Z,14.71
2019-04-23T06:51:51.874Z,15.10
2019-04-23T06:54:04.475Z,15.49
2019-04-23T06:56:37.490Z,15.48
2019-04-23T06:59:02.454Z,15.61
2019-04-23T07:01:33.426Z,15.32
2019-04-23T07:03:56.941Z,15.35
2019-04-23T07:09:09.649Z,15.26
2019-04-23T07:13:49.135Z,15.27
2019-04-23T07:16:03.434Z,15.41
2019-04-23T07:18:31.453Z,15.72
2019-04-23T07:21:02.779Z,15.79
2019-04-23T07:23:35.677Z,15.59
2019-04-23T07:26:02.223Z,15.75
2019-04-23T07:28:21.405Z,15.47
2019-04-23T07:30:56.133Z,15.90
2019-04-23T07:33:19.165Z,16.12
2019-04-23T07:35:51.810Z,16.07
2019-04-23T07:38:44.244Z,15.78
2019-04-23T07:41:23.610Z,16.41
2019-04-23T07:44:02.601Z,15.97
2019-04-23T07:46:49.946Z,16.20
2019-04-23T07:48:56.372Z,16.17
2019-04-23T07:51:27.609Z,16.12
2019-04-23T07:53:53.582Z,16.32
2019-04-23T07:56:27.980Z,16.33
2019-04-23T07:58:39.383Z,16.13
2019-04-23T08:01:09.641Z,16.36
2019-04-23T08:03:39.326Z,16.61
2019-04-23T08:06:01.016Z,16.53
2019-04-23T08:08:43.320Z,16.50
2019-04-23T08:13:42.335Z,16.38
2019-04-23T08:16:08.892Z,16.63
2019-04-23T08:18:29.942Z,16.75
2019-04-23T08:23:42.548Z,16.84
2019-04-23T08:26:26.825Z,17.18
2019-04-23T08:29:00.981Z,17.10
2019-04-23T08:31:15.259Z,17.15
2019-04-23T08:33:40.128Z,16.92
2019-04-23T08:36:12.330Z,17.03
2019-04-23T08:41:12.903Z,17.66
2019-04-23T08:43:47.821Z,17.42
2019-04-23T08:46:05.828Z,17.10
2019-04-23T08:48:55.677Z,17.33
2019-04-23T08:51:03.472Z,17.78
2019-04-23T08:55:55.024Z,17.78
2019-04-23T08:58:22.441Z,17.94
2019-04-23T09:00:52.619Z,17.89
2019-04-23T09:03:20.020Z,18.01
2019-04-23T09:08:13.095Z,18.29
2019-04-23T09:10:41.033Z,18.32
2019-04-23T09:13:26.108Z,18.09
2019-04-23T09:18:05.117Z,17.84
2019-04-23T09:20:27.639Z,18.48
2019-04-23T09:23:02.820Z,18.46
2019-04-23T09:30:13.289Z,18.85
2019-04-23T09:32:36.351Z,19.23
2019-04-23T09:37:48.419Z,19.01
2019-04-23T09:40:16.737Z,19.04
2019-04-23T09:45:20.309Z,19.34
2019-04-23T09:48:04.812Z,19.43
2019-04-23T09:53:09.630Z,19.78
2019-04-23T09:55:33.734Z,19.62
2019-04-23T10:00:34.660Z,20.09
2019-04-23T10:02:34.068Z,20.17
2019-04-23T10:05:01.300Z,20.41
2019-04-23T10:07:28.596Z,20.42
2019-04-23T10:09:40.705Z,20.62
2019-04-23T10:12:07.208Z,21.03
2019-04-23T10:14:32.482Z,20.66
2019-04-23T10:16:58.035Z,21.18
2019-04-23T10:19:24.572Z,21.22
2019-04-23T10:21:49.327Z,20.96
2019-04-23T10:24:15.065Z,21.12
2019-04-23T10:26:39.992Z,21.30
2019-04-23T10:29:07.717Z,21.08
2019-04-23T10:31:33.494Z,20.85
2019-04-23T10:33:58.115Z,21.19
2019-04-23T10:36:25.849Z,20.85
2019-04-23T10:38:56.095Z,21.45
2019-04-23T10:41:16.067Z,21.16
2019-04-23T10:43:43.699Z,21.57
2019-04-23T10:46:47.119Z,21.80
2019-04-23T10:49:47.814Z,22.19
2019-04-23T10:52:24.890Z,21.95
2019-04-23T10:57:12.845Z,21.63
2019-04-23T11:02:23.986Z,22.21
2019-04-23T11:07:03.338Z,22.64
2019-04-23T11:09:43.125Z,22.42
2019-04-23T11:11:55.129Z,22.14
2019-04-23T11:14:18.241Z,22.82
2019-04-23T11:19:32.375Z,22.81
2019-04-23T11:21:42.810Z,22.61
2019-04-23T11:24:11.377Z,22.54
2019-04-23T11:26:42.376Z,23.00
2019-04-23T11:28:55.187Z,23.26
2019-04-23T11:31:31.250Z,23.12
2019-04-23T11:33:52.310Z,23.31
2019-04-23T11:36:43.487Z,23.54
2019-04-23T11:41:17.028Z,23.41
2019-04-23T11:43:34.243Z,23.33
2019-04-23T11:46:10.594Z,23.54
2019-04-23T11:48:48.080Z,23.83
2019-04-23T11:51:36.398Z,24.11
2019-04-23T11:56:02.799Z,23.52
2019-04-23T12:01:00.840Z,23.86
2019-04-23T12:03:02.544Z,24.08
2019-04-23T12:05:58.281Z,24.08
2019-04-23T12:08:33.389Z,24.15
2019-04-23T12:11:36.119Z,24.15
2019-04-23T12:15:53.863Z,23.77
2019-04-23T12:18:28.302Z,24.34
2019-04-23T12:20:39.839Z,24.16
2019-04-23T12:23:25.324Z,23.83
2019-04-23T12:28:06.578Z,24.12
2019-04-23T12:30:42.009Z,24.75
2019-04-23T12:33:22.033Z,24.42
2019-04-23T12:35:25.752Z,24.79
2019-04-23T12:40:36.002Z,24.92
2019-04-23T12:47:58.195Z,24.51
2019-04-23T12:52:34.273Z,24.51
2019-04-23T12:55:06.775Z,24.28
2019-04-23T12:59:50.363Z,24.73
2019-04-23T13:02:25.812Z,25.08
2019-04-23T13:12:20.549Z,25.65
2019-04-23T13:14:43.771Z,24.98
2019-04-23T13:17:15.399Z,25.25
2019-04-23T13:19:39.483Z,24.69
2019-04-23T13:24:32.752Z,25.21
2019-04-23T13:26:54.901Z,25.40
2019-04-23T13:29:28.612Z,25.36
2019-04-23T13:31:51.913Z,25.55
2019-04-23T13:34:25.883Z,25.73
2019-04-23T13:36:46.890Z,24.79
2019-04-23T13:39:14.629Z,25.59
2019-04-23T13:41:33.566Z,26.03
2019-04-23T13:43:52.722Z,25.57
2019-04-23T13:46:19.794Z,26.28
2019-04-23T13:48:48.910Z,26.14
2019-04-23T13:51:25.674Z,25.18
2019-04-23T13:53:49.714Z,25.98
2019-04-23T13:56:19.011Z,25.90
2019-04-23T14:01:18.345Z,25.09
2019-04-23T14:03:35.712Z,25.59
2019-04-23T14:08:53.893Z,25.80
2019-04-23T14:11:05.418Z,26.69
2019-04-23T14:18:53.914Z,26.53
2019-04-23T14:20:53.158Z,24.97
2019-04-23T14:26:01.107Z,26.48
2019-04-23T14:28:28.105Z,26.83
2019-04-23T14:33:11.521Z,26.85
2019-04-23T14:35:32.165Z,26.63
2019-04-23T14:38:11.333Z,26.35
2019-04-23T14:40:26.528Z,26.22
2019-04-23T14:42:56.770Z,25.09
2019-04-23T14:45:29.725Z,25.57
2019-04-23T14:48:03.924Z,25.57
2019-04-23T14:52:38.316Z,24.97
2019-04-23T14:57:46.074Z,24.66
2019-04-23T15:00:03.423Z,25.24
2019-04-23T15:02:31.489Z,24.41
2019-04-23T15:04:51.124Z,24.41
2019-04-23T15:09:55.616Z,23.72
2019-04-23T15:12:30.162Z,24.53
2019-04-23T15:14:51.208Z,24.30
2019-04-23T15:17:05.516Z,24.37
2019-04-23T15:22:16.891Z,24.07
2019-04-23T15:29:12.895Z,24.15
2019-04-23T15:34:19.829Z,23.89
2019-04-23T15:40:15.212Z,24.23
2019-04-23T15:41:49.043Z,23.48
2019-04-23T15:44:10.718Z,23.44
2019-04-23T15:46:47.090Z,23.90
2019-04-23T15:49:08.293Z,23.87
2019-04-23T15:51:35.510Z,23.78
2019-04-23T15:53:56.417Z,23.60
2019-04-23T15:56:26.848Z,23.72
2019-04-23T15:59:17.989Z,23.46
2019-04-23T16:03:19.726Z,23.78
2019-04-23T16:05:42.808Z,23.37
2019-04-23T16:08:45.594Z,23.40
2019-04-23T16:11:15.541Z,23.14
2019-04-23T16:13:31.179Z,23.28
2019-04-23T16:16:02.598Z,23.64
2019-04-23T16:18:28.417Z,23.99
2019-04-23T16:21:10.504Z,23.93
2019-04-23T16:23:15.239Z,23.87
2019-04-23T16:25:36.340Z,23.83
2019-04-23T16:28:09.130Z,23.89
2019-04-23T16:30:34.718Z,23.63
2019-04-23T16:35:34.659Z,23.93
2019-04-23T16:38:13.607Z,23.80
2019-04-23T16:40:31.872Z,23.33
2019-04-23T16:42:59.676Z,23.41
2019-04-23T16:45:25.603Z,23.95
2019-04-23T16:48:07.368Z,23.76
2019-04-23T16:50:11.432Z,23.57
2019-04-23T16:52:39.501Z,23.50
2019-04-23T16:55:07.087Z,23.18
2019-04-23T16:57:35.698Z,23.50
2019-04-23T17:02:21.153Z,22.81
2019-04-23T17:04:53.015Z,23.10
2019-04-23T17:07:07.053Z,22.35
2019-04-23T17:09:51.179Z,22.61
2019-04-23T17:14:48.080Z,23.25
2019-04-23T17:16:51.587Z,22.31
2019-04-23T17:21:53.323Z,22.12
2019-04-23T17:29:13.703Z,22.39
2019-04-23T17:34:12.108Z,21.75
2019-04-23T17:36:38.046Z,22.22
2019-04-23T17:41:36.057Z,22.11
2019-04-23T17:44:14.244Z,22.08
2019-04-23T17:46:32.310Z,21.77
2019-04-23T17:48:56.494Z,21.30
2019-04-23T17:51:19.668Z,21.47
2019-04-23T17:53:50.146Z,21.50
2019-04-23T17:56:26.703Z,21.28
2019-04-23T18:03:49.532Z,21.73
2019-04-23T18:06:21.305Z,21.75
2019-04-23T18:08:32.902Z,21.44
2019-04-23T18:11:13.126Z,21.51
2019-04-23T18:13:27.709Z,21.20
2019-04-23T18:16:04.129Z,21.27
2019-04-23T18:18:23.591Z,21.32
2019-04-23T18:21:04.809Z,21.09
2019-04-23T18:23:28.494Z,20.85
2019-04-23T18:26:05.578Z,21.24
2019-04-23T18:28:30.176Z,21.11
2019-04-23T18:31:06.189Z,20.98
2019-04-23T18:36:02.430Z,20.87
2019-04-23T18:40:58.908Z,21.03
2019-04-23T18:43:20.171Z,21.22
2019-04-23T18:45:46.741Z,21.09
2019-04-23T18:48:39.198Z,20.97
2019-04-23T18:50:52.150Z,20.55
2019-04-23T18:53:26.842Z,20.38
2019-04-23T18:55:57.696Z,20.69
2019-04-23T18:58:12.898Z,20.34
2019-04-23T19:00:45.674Z,20.77
2019-04-23T19:03:30.270Z,20.56
2019-04-23T19:05:45.625Z,20.49
2019-04-23T19:08:21.321Z,20.72
2019-04-23T19:10:53.734Z,20.52
2019-04-23T19:13:18.683Z,20.32
2019-04-23T19:18:12.565Z,19.72
2019-04-23T19:23:13.814Z,20.32
2019-04-23T19:25:31.859Z,19.97
2019-04-23T19:28:30.684Z,19.48
2019-04-23T19:30:38.831Z,19.80
2019-04-23T19:32:57.189Z,19.77
2019-04-23T19:35:39.919Z,19.78
2019-04-23T19:40:11.464Z,19.72
2019-04-23T19:42:44.429Z,19.93
2019-04-23T19:45:12.954Z,19.94
2019-04-23T19:47:37.611Z,19.31
2019-04-23T19:49:56.815Z,19.74
2019-04-23T19:52:20.354Z,19.68
2019-04-23T19:57:19.435Z,19.44
2019-04-23T19:59:44.457Z,19.59
2019-04-23T20:04:40.714Z,19.61
2019-04-23T20:07:12.287Z,19.38
2019-04-23T20:11:55.554Z,19.13
2019-04-23T20:14:19.229Z,19.45
2019-04-23T20:17:06.127Z,19.55
2019-04-23T20:19:19.034Z,19.21
2019-04-23T20:21:44.406Z,18.98
2019-04-23T20:26:32.352Z,19.65
2019-04-23T20:32:06.298Z,19.55
2019-04-23T20:33:00.054Z,19.02
2019-04-23T20:39:02.635Z,19.62
2019-04-23T20:41:33.248Z,19.37
2019-04-23T20:43:56.142Z,18.92
2019-04-23T20:46:17.878Z,18.88
2019-04-23T20:48:48.903Z,19.04
2019-04-23T20:51:04.892Z,19.17
2019-04-23T20:53:45.006Z,18.88
2019-04-23T20:56:07.293Z,18.68
2019-04-23T20:58:30.805Z,18.95
2019-04-23T21:01:07.731Z,18.83
2019-04-23T21:03:37.592Z,19.01
2019-04-23T21:05:58.565Z,19.12
2019-04-23T21:08:30.903Z,18.69
2019-04-23T21:10:56.801Z,18.87
2019-04-23T21:15:45.551Z,18.84
2019-04-23T21:20:36.972Z,18.64
2019-04-23T21:23:09.653Z,18.18
2019-04-23T21:25:30.517Z,18.45
2019-04-23T21:28:17.191Z,18.43
2019-04-23T21:33:11.629Z,18.74
2019-04-23T21:36:10.841Z,18.33
2019-04-23T21:38:33.297Z,18.42
2019-04-23T21:41:06.113Z,18.81
2019-04-23T21:43:16.451Z,18.68
2019-04-23T21:45:52.776Z,18.78
2019-04-23T21:50:43.334Z,18.80
2019-04-23T21:52:58.862Z,18.44
2019-04-23T21:55:38.950Z,18.43
2019-04-23T22:00:24.271Z,18.29
2019-04-23T22:02:59.446Z,17.87
2019-04-23T22:05:15.953Z,18.18
2019-04-23T22:07:51.912Z,18.24
2019-04-23T22:10:09.677Z,18.44
2019-04-23T22:12:34.186Z,17.83
2019-04-23T22:14:55.335Z,18.10
2019-04-23T22:17:25.638Z,18.04
2019-04-23T22:20:09.474Z,18.17
2019-04-23T22:22:22.185Z,17.74
2019-04-23T22:27:13.249Z,18.00
2019-04-23T22:29:39.123Z,18.00
2019-04-23T22:31:59.755Z,18.34
2019-04-23T22:34:31.106Z,17.53
2019-04-23T22:37:04.603Z,17.83
2019-04-23T22:44:22.487Z,18.11
2019-04-23T22:46:53.638Z,17.96
2019-04-23T22:49:40.649Z,18.07
2019-04-23T22:52:00.423Z,17.95
2019-04-23T22:54:13.755Z,17.60
2019-04-23T22:56:44.005Z,17.67
2019-04-23T23:00:00.936Z,17.59
2019-04-23T23:01:56.927Z,17.86
2019-04-23T23:04:13.888Z,18.04
2019-04-23T23:06:48.915Z,17.38
2019-04-23T23:09:18.964Z,17.82
2019-04-23T23:11:35.435Z,17.96
2019-04-23T23:14:09.909Z,17.58
2019-04-23T23:16:22.342Z,17.89
2019-04-23T23:18:49.144Z,17.78
2019-04-23T23:21:12.309Z,17.55
2019-04-23T23:23:40.800Z,17.85
2019-04-23T23:26:10.006Z,17.80
2019-04-23T23:28:38.075Z,17.55
2019-04-23T23:31:10.187Z,17.63
2019-04-23T23:33:24.780Z,17.65
2019-04-23T23:35:53.044Z,17.27
2019-04-23T23:38:25.229Z,17.30
2019-04-23T23:40:47.596Z,17.29
2019-04-23T23:43:23.140Z,17.73
2019-04-23T23:45:46.748Z,17.62
2019-04-23T23:48:11.457Z,17.46
2019-04-23T23:50:35.439Z,17.21
2019-04-23T23:53:02.516Z,16.97
2019-04-23T23:55:25.016Z,17.34
2019-04-23T23:57:52.857Z,17.41
